createdAt,value
2022-12-05T00:01:44.274Z,100713.22
2022-12-05T00:06:47.680Z,100721.13
2022-12-05T00:11:50.586Z,100716.09
2022-12-05T00:16:53.524Z,100717.06
2022-12-05T00:21:57.727Z,100714.91
2022-12-05T00:27:00.596Z,100717.63
2022-12-05T00:32:03.583Z,100709.13
2022-12-05T00:37:06.584Z,100704.09
2022-12-05T00:42:09.435Z,100702.41
2022-12-05T00:47:12.358Z,100699.78
2022-12-05T00:52:15.244Z,100703.50
2022-12-05T00:57:18.190Z,100708.88
2022-12-05T01:02:21.158Z,100709.81
2022-12-05T01:07:24.052Z,100721.16
2022-12-05T01:12:28.239Z,100706.72
2022-12-05T01:17:31.259Z,100705.97
2022-12-05T01:22:34.242Z,100699.03
2022-12-05T01:27:37.371Z,100688.72
2022-12-05T01:32:40.220Z,100703.78
2022-12-05T01:37:43.204Z,100695.06
2022-12-05T01:42:46.024Z,100700.34
2022-12-05T01:47:48.976Z,100688.25
2022-12-05T01:52:51.985Z,100685.63
2022-12-05T01:57:57.798Z,100683.09
2022-12-05T02:03:08.007Z,100688.47
2022-12-05T02:08:13.132Z,100677.84
2022-12-05T02:13:59.649Z,100692.78
2022-12-05T02:19:32.845Z,100693.59
2022-12-05T02:25:01.260Z,100698.88
2022-12-05T02:30:10.727Z,100699.13
2022-12-05T02:35:18.737Z,100701.03
2022-12-05T02:40:43.261Z,100702.59
2022-12-05T02:45:53.089Z,100709.00
2022-12-05T02:51:00.734Z,100710.09
2022-12-05T02:56:05.224Z,100709.47
2022-12-05T03:01:08.838Z,100715.69
2022-12-05T03:06:33.204Z,100713.06
2022-12-05T03:11:47.897Z,100715.81
2022-12-05T03:16:55.063Z,100712.34
2022-12-05T03:22:15.320Z,100716.63
2022-12-05T03:27:51.386Z,100711.38
2022-12-05T03:33:08.017Z,100714.72
2022-12-05T03:38:18.926Z,100716.63
2022-12-05T03:43:46.067Z,100711.38
2022-12-05T03:48:48.903Z,100715.56
2022-12-05T03:54:13.983Z,100713.75
2022-12-05T03:59:34.130Z,100714.63
2022-12-05T04:04:49.330Z,100714.63
2022-12-05T04:10:00.361Z,100714.50
2022-12-05T04:15:22.616Z,100700.63
2022-12-05T04:20:59.010Z,100712.94
2022-12-05T04:26:23.980Z,100707.66
2022-12-05T04:31:39.637Z,100718.19
2022-12-05T04:36:55.794Z,100711.13
2022-12-05T04:42:04.970Z,100712.09
2022-12-05T04:47:12.204Z,100711.25
2022-12-05T04:52:15.646Z,100704.19
2022-12-05T04:57:26.541Z,100702.53
2022-12-05T05:02:40.788Z,100700.03
2022-12-05T05:07:54.136Z,100698.22
2022-12-05T05:12:57.138Z,100702.53
2022-12-05T05:18:00.072Z,100703.50
2022-12-05T05:23:02.893Z,100711.13
2022-12-05T05:28:05.708Z,100722.53
2022-12-05T05:33:08.677Z,100705.03
2022-12-05T05:38:11.600Z,100709.59
2022-12-05T05:43:14.456Z,100725.25
2022-12-05T05:48:17.329Z,100717.47
2022-12-05T05:53:20.220Z,100716.38
2022-12-05T05:58:23.583Z,100729.53
2022-12-05T06:03:27.826Z,100721.66
2022-12-05T06:08:33.396Z,100736.50
2022-12-05T06:13:37.337Z,100733.75
2022-12-05T06:18:40.581Z,100739.84
2022-12-05T06:23:43.702Z,100745.00
2022-12-05T06:28:47.021Z,100747.50
2022-12-05T06:33:50.237Z,100752.56
2022-12-05T06:38:53.051Z,100757.81
2022-12-05T06:44:01.849Z,100755.91
2022-12-05T06:49:05.555Z,100755.19
2022-12-05T06:54:08.380Z,100750.03
2022-12-05T06:59:11.309Z,100769.78
2022-12-05T07:04:24.013Z,100757.34
2022-12-05T07:09:46.017Z,100768.59
2022-12-05T07:14:49.868Z,100776.28
2022-12-05T07:19:53.587Z,100789.31
2022-12-05T07:24:56.556Z,100778.78
2022-12-05T07:29:59.650Z,100788.03
2022-12-05T07:35:02.726Z,100785.28
2022-12-05T07:40:06.659Z,100780.63
2022-12-05T07:45:10.418Z,100789.13
2022-12-05T07:50:15.139Z,100793.34
2022-12-05T07:55:18.116Z,100798.28
2022-12-05T08:00:22.423Z,100802.25
2022-12-05T08:05:25.341Z,100800.81
2022-12-05T08:10:28.237Z,100803.97
2022-12-05T08:15:35.765Z,100800.03
2022-12-05T08:20:38.692Z,100819.66
2022-12-05T08:25:41.680Z,100813.09
2022-12-05T08:30:44.676Z,100825.81
2022-12-05T08:35:47.661Z,100825.34
2022-12-05T08:40:50.666Z,100825.94
2022-12-05T08:45:54.095Z,100821.03
2022-12-05T08:50:57.974Z,100815.09
2022-12-05T08:56:06.429Z,100820.09
2022-12-05T09:01:13.362Z,100813.78
2022-12-05T09:06:16.307Z,100811.28
2022-12-05T09:11:25.986Z,100811.16
2022-12-05T09:16:37.999Z,100806.59
2022-12-05T09:21:42.945Z,100803.81
2022-12-05T09:26:46.501Z,100800.00
2022-12-05T09:31:51.746Z,100791.63
2022-12-05T09:37:10.210Z,100793.06
2022-12-05T09:42:43.486Z,100790.66
2022-12-05T09:48:12.546Z,100780.59
2022-12-05T09:53:37.602Z,100783.03
2022-12-05T09:58:48.781Z,100787.06
2022-12-05T10:05:00.361Z,100780.72
2022-12-05T10:10:28.726Z,100780.34
2022-12-05T10:15:53.031Z,100779.41
2022-12-05T10:21:38.729Z,100777.22
2022-12-05T10:26:48.790Z,100761.88
2022-12-05T10:31:57.750Z,100757.91
2022-12-05T10:37:20.409Z,100755.03
2022-12-05T10:42:31.631Z,100742.69
2022-12-05T10:47:35.872Z,100743.88
2022-12-05T10:52:38.805Z,100741.22
2022-12-05T10:57:41.769Z,100733.47
2022-12-05T11:02:50.259Z,100718.75
2022-12-05T11:07:53.455Z,100719.41
2022-12-05T11:13:00.858Z,100717.94
2022-12-05T11:18:30.916Z,100715.03
2022-12-05T11:23:33.862Z,100704.47
2022-12-05T11:28:38.041Z,100709.44
2022-12-05T11:33:41.800Z,100696.88
2022-12-05T11:38:44.767Z,100692.38
2022-12-05T11:44:14.726Z,100688.81
2022-12-05T11:49:55.639Z,100685.78
2022-12-05T11:55:12.470Z,100677.91
2022-12-05T12:00:50.485Z,100673.34
2022-12-05T12:05:56.356Z,100677.09
2022-12-05T12:11:14.214Z,100677.59
2022-12-05T12:17:01.808Z,100670.28
2022-12-05T12:23:01.225Z,100655.28
2022-12-05T12:28:22.503Z,100669.19
2022-12-05T12:34:16.611Z,100666.53
2022-12-05T12:40:03.472Z,100657.19
2022-12-05T12:45:47.740Z,100663.31
2022-12-05T12:50:54.824Z,100657.81
2022-12-05T12:56:36.672Z,100652.66
2022-12-05T13:02:12.785Z,100650.13
2022-12-05T13:07:23.291Z,100644.41
2022-12-05T13:12:32.665Z,100643.56
2022-12-05T13:17:36.141Z,100639.97
2022-12-05T13:22:39.199Z,100633.72
2022-12-05T13:27:59.825Z,100628.59
2022-12-05T13:33:10.224Z,100632.31
2022-12-05T13:38:59.555Z,100629.06
2022-12-05T13:44:12.501Z,100625.50
2022-12-05T13:49:53.283Z,100639.63
2022-12-05T13:55:14.535Z,100646.81
2022-12-05T14:00:17.438Z,100647.66
2022-12-05T14:05:25.603Z,100647.66
2022-12-05T14:10:28.458Z,100656.16
2022-12-05T14:15:39.474Z,100643.94
2022-12-05T14:21:10.132Z,100630.88
2022-12-05T14:26:39.789Z,100636.28
2022-12-05T14:32:10.415Z,100641.81
2022-12-05T14:37:16.295Z,100642.06
2022-12-05T14:42:36.196Z,100640.53
2022-12-05T14:47:39.138Z,100631.78
2022-12-05T14:52:42.229Z,100625.06
2022-12-05T14:57:49.196Z,100627.84
2022-12-05T15:02:55.505Z,100624.22
2022-12-05T15:08:00.830Z,100622.56
2022-12-05T15:13:18.577Z,100622.94
2022-12-05T15:18:45.830Z,100622.22
2022-12-05T15:23:59.351Z,100612.63
2022-12-05T15:29:08.096Z,100614.19
2022-12-05T15:34:54.973Z,100603.66
2022-12-05T15:40:08.209Z,100604.72
2022-12-05T15:45:14.596Z,100596.81
2022-12-05T15:50:53.158Z,100586.25
2022-12-05T15:56:05.469Z,100572.25
2022-12-05T16:01:25.797Z,100600.53
2022-12-05T16:06:55.127Z,100609.41
2022-12-05T16:12:17.147Z,100596.94
2022-12-05T16:17:21.464Z,100589.16
2022-12-05T16:22:28.678Z,100598.03
2022-12-05T16:27:39.357Z,100595.50
2022-12-05T16:32:45.151Z,100599.84
2022-12-05T16:37:48.056Z,100597.78
2022-12-05T16:43:06.443Z,100606.41
2022-12-05T16:48:24.279Z,100602.69
2022-12-05T16:53:35.148Z,100597.28
2022-12-05T16:58:56.798Z,100592.72
2022-12-05T17:03:59.915Z,100603.00
2022-12-05T17:09:02.885Z,100596.53
2022-12-05T17:14:07.507Z,100583.34
2022-12-05T17:19:14.436Z,100575.56
2022-12-05T17:24:18.901Z,100567.53
2022-12-05T17:29:21.894Z,100562.13
2022-12-05T17:34:24.720Z,100549.78
2022-12-05T17:39:28.886Z,100552.41
2022-12-05T17:44:31.966Z,100541.03
2022-12-05T17:49:34.896Z,100547.97
2022-12-05T17:54:37.867Z,100550.63
2022-12-05T17:59:40.749Z,100561.75
2022-12-05T18:04:43.710Z,100566.75
2022-12-05T18:09:46.571Z,100566.66
2022-12-05T18:14:49.421Z,100563.03
2022-12-05T18:19:52.225Z,100554.03
2022-12-05T18:24:57.330Z,100557.41
2022-12-05T18:30:00.572Z,100548.63
2022-12-05T18:35:08.680Z,100537.00
2022-12-05T18:40:15.606Z,100542.28
2022-12-05T18:45:18.433Z,100544.91
2022-12-05T18:50:21.312Z,100533.16
2022-12-05T18:55:44.987Z,100532.19
2022-12-05T19:00:47.134Z,100539.13
2022-12-05T19:05:50.131Z,100524.00
2022-12-05T19:10:53.085Z,100530.94
2022-12-05T19:16:03.948Z,100524.72
2022-12-05T19:21:07.209Z,100521.94
2022-12-05T19:26:10.723Z,100523.59
2022-12-05T19:31:23.052Z,100513.91
2022-12-05T19:36:30.206Z,100512.94
2022-12-05T19:41:33.059Z,100513.78
2022-12-05T19:46:36.602Z,100514.03
2022-12-05T19:51:39.610Z,100508.16
2022-12-05T19:56:42.583Z,100497.16
2022-12-05T20:01:45.592Z,100489.53
2022-12-05T20:06:50.013Z,100491.56
2022-12-05T20:11:55.609Z,100493.38
2022-12-05T20:17:00.330Z,100493.50
2022-12-05T20:22:03.325Z,100502.25
2022-12-05T20:27:07.400Z,100496.97
2022-12-05T20:32:10.306Z,100493.25
2022-12-05T20:37:13.240Z,100487.03
2022-12-05T20:42:16.089Z,100473.72
2022-12-05T20:47:19.062Z,100472.03
2022-12-05T20:52:21.974Z,100466.75
2022-12-05T20:57:24.747Z,100468.44
2022-12-05T21:02:27.748Z,100467.59
2022-12-05T21:07:30.642Z,100459.81
2022-12-05T21:12:33.562Z,100444.94
2022-12-05T21:17:36.396Z,100455.38
2022-12-05T21:22:39.286Z,100452.84
2022-12-05T21:27:42.100Z,100438.72
2022-12-05T21:32:45.030Z,100444.84
2022-12-05T21:37:47.875Z,100436.34
2022-12-05T21:42:50.739Z,100433.56
2022-12-05T21:47:53.904Z,100430.09
2022-12-05T21:52:56.855Z,100421.34
2022-12-05T21:57:59.736Z,100427.22
2022-12-05T22:03:03.146Z,100416.78
2022-12-05T22:08:06.787Z,100421.94
2022-12-05T22:13:09.785Z,100408.75
2022-12-05T22:18:12.465Z,100415.94
2022-12-05T22:23:17.020Z,100402.88
2022-12-05T22:28:20.396Z,100398.59
2022-12-05T22:33:24.709Z,100404.69
2022-12-05T22:38:32.560Z,100402.75
2022-12-05T22:43:37.731Z,100385.13
2022-12-05T22:48:40.952Z,100385.13
2022-12-05T22:53:44.345Z,100372.09
2022-12-05T22:58:47.978Z,100380.97
2022-12-05T23:03:57.114Z,100364.44
2022-12-05T23:09:01.290Z,100366.13
2022-12-05T23:14:06.011Z,100361.81
2022-12-05T23:19:08.905Z,100365.41
2022-12-05T23:24:12.814Z,100372.59
2022-12-05T23:29:15.735Z,100359.44
2022-12-05T23:34:18.895Z,100353.47
2022-12-05T23:39:21.780Z,100335.00
2022-12-05T23:44:24.613Z,100329.88
2022-12-05T23:49:27.623Z,100313.19
2022-12-05T23:54:30.533Z,100320.41
2022-12-05T23:59:33.263Z,100312.06
